Time;durP1;ratioP1;P1;durP2;ratioP2;P2;SDS_P1;SDS_P2;PMS_P1;PMS_P2;Temp;Humidity;BMP_temperature;BMP_pressure;BME280_temperature;BME280_humidity;BME280_pressure;Samples;Min_cycle;Max_cycle;Signal;HPM_P1;HPM_P2
2023/08/23 00:01:30;;;;;;;;;;;;;;;;;;4932222;28;19919;-91
2023/08/23 00:03:55;;;;;;;;;;;;;;;;;;4931434;28;20290;-92
2023/08/23 00:06:22;;;;;;;;;;;;;;;;;;4927953;28;19918;-91
2023/08/23 00:08:48;;;;;;;;;;;;;;;;;;4951076;28;19954;-91
2023/08/23 00:11:14;;;;;;;;;;;;;;;;;;4932498;29;19910;-90
2023/08/23 00:13:43;;;;;;;;;;;;;;;;;;4928499;28;20198;-89
2023/08/23 00:16:09;;;;;;;;;;;;;;;;;;4927241;29;19906;-90
2023/08/23 00:18:35;;;;;;;;;;;;;;;;;;4935686;28;19911;-90
2023/08/23 00:21:01;;;;;;;;;;;;;;;;;;4932393;28;19910;-89
2023/08/23 00:23:27;;;;;;;;;;;;;;;;;;4928877;28;19914;-90
2023/08/23 00:25:53;;;;;;;;;;;;;;;;;;4933200;28;19919;-90
2023/08/23 00:28:22;;;;;;;;;;;;;;;;;;4944019;28;19922;-90
2023/08/23 00:30:48;;;;;;;;;;;;;;;;;;4935441;29;19915;-90
2023/08/23 00:33:14;;;;;;;;;;;;;;;;;;4933705;29;20148;-90
2023/08/23 00:35:39;;;;;;;;;;;;;;;;;;4932718;28;20132;-91
2023/08/23 00:38:05;;;;;;;;;;;;;;;;;;4926545;28;20939;-93
2023/08/23 00:40:31;;;;;;;;;;;;;;;;;;4940986;29;19915;-92
2023/08/23 00:42:57;;;;;;;;;;;;;;;;;;4934262;28;19925;-93
2023/08/23 00:45:26;;;;;;;;;;;;;;;;;;4940875;28;19926;-93
2023/08/23 00:47:52;;;;;;;;;;;;;;;;;;4938506;29;19922;-93
2023/08/23 00:50:18;;;;;;;;;;;;;;;;;;4942252;28;20430;-94
2023/08/23 00:52:44;;;;;;;;;;;;;;;;;;4938647;28;19915;-94
2023/08/23 00:55:10;;;;;;;;;;;;;;;;;;4941916;28;19922;-94
2023/08/23 00:57:36;;;;;;;;;;;;;;;;;;4937640;28;20513;-93
2023/08/23 01:00:03;;;;;;;;;;;;;;;;;;4932573;28;19918;-92
2023/08/23 01:02:29;;;;;;;;;;;;;;;;;;4931905;28;19985;-93
2023/08/23 01:04:55;;;;;;;;;;;;;;;;;;4933453;28;20440;-93
2023/08/23 01:07:21;;;;;;;;;;;;;;;;;;4945789;28;19919;-93
2023/08/23 01:09:47;;;;;;;;;;;;;;;;;;4933360;28;22241;-93
2023/08/23 01:12:13;;;;;;;;;;;;;;;;;;4936518;28;19949;-93
2023/08/23 01:14:39;;;;;;;;;;;;;;;;;;4931827;28;19986;-94
2023/08/23 01:17:05;;;;;;;;;;;;;;;;;;4931656;28;19918;-94
2023/08/23 01:19:31;;;;;;;;;;;;;;;;;;4939162;29;19914;-93
2023/08/23 01:21:57;;;;;;;;;;;;;;;;;;4933315;28;19915;-92
2023/08/23 01:24:26;;;;;;;;;;;;;;;;;;4931803;29;19911;-94
2023/08/23 01:26:55;;;;;;;;;;;;;;;;;;4936829;28;19978;-94
2023/08/23 01:29:21;;;;;;;;;;;;;;;;;;4937410;28;19918;-93
2023/08/23 01:31:47;;;;;;;;;;;;;;;;;;4932295;28;19930;-92
2023/08/23 01:34:13;;;;;;;;;;;;;;;;;;4936897;29;19921;-93
2023/08/23 01:36:39;;;;;;;;;;;;;;;;;;4936232;28;20189;-93
2023/08/23 01:39:04;;;;;;;;;;;;;;;;;;4932583;28;19913;-91
2023/08/23 01:41:30;;;;;;;;;;;;;;;;;;4935177;29;20297;-94
2023/08/23 01:43:56;;;;;;;;;;;;;;;;;;4932383;28;19918;-94
2023/08/23 01:46:22;;;;;;;;;;;;;;;;;;4938415;28;19925;-90
2023/08/23 01:48:48;;;;;;;;;;;;;;;;;;4935110;29;19937;-90
2023/08/23 01:51:14;;;;;;;;;;;;;;;;;;4937171;28;19926;-91
2023/08/23 01:53:40;;;;;;;;;;;;;;;;;;4931586;29;19921;-90
2023/08/23 01:56:06;;;;;;;;;;;;;;;;;;4930749;28;19917;-90
2023/08/23 01:58:32;;;;;;;;;;;;;;;;;;4939558;29;20378;-90
2023/08/23 02:00:58;;;;;;;;;;;;;;;;;;4931903;28;19922;-90
2023/08/23 02:03:24;;;;;;;;;;;;;;;;;;4937618;29;20005;-91
2023/08/23 02:05:53;;;;;;;;;;;;;;;;;;4936604;28;19957;-90
2023/08/23 02:08:19;;;;;;;;;;;;;;;;;;4937249;29;19914;-91
2023/08/23 02:10:45;;;;;;;;;;;;;;;;;;4932539;29;19983;-90
2023/08/23 02:13:11;;;;;;;;;;;;;;;;;;4934423;29;19980;-90
2023/08/23 02:15:37;;;;;;;;;;;;;;;;;;4936113;28;19933;-90
2023/08/23 02:18:03;;;;;;;;;;;;;;;;;;4937424;29;20545;-90
2023/08/23 02:20:29;;;;;;;;;;;;;;;;;;4943791;28;19911;-90
2023/08/23 02:22:55;;;;;;;;;;;;;;;;;;4936630;29;21220;-89
2023/08/23 02:25:21;;;;;;;;;;;;;;;;;;4930948;28;19942;-90
2023/08/23 02:27:47;;;;;;;;;;;;;;;;;;4937973;29;19938;-90
2023/08/23 02:30:13;;;;;;;;;;;;;;;;;;4953073;28;20570;-90
2023/08/23 02:32:39;;;;;;;;;;;;;;;;;;4931432;29;19961;-89
2023/08/23 02:35:08;;;;;;;;;;;;;;;;;;4933102;28;19945;-90
2023/08/23 02:37:34;;;;;;;;;;;;;;;;;;4927728;29;19957;-90
2023/08/23 02:40:00;;;;;;;;;;;;;;;;;;4935785;29;19914;-89
2023/08/23 02:42:26;;;;;;;;;;;;;;;;;;4928853;29;20592;-90
2023/08/23 02:44:52;;;;;;;;;;;;;;;;;;4935873;29;19910;-90
2023/08/23 02:47:18;;;;;;;;;;;;;;;;;;4947003;28;19926;-90
2023/08/23 02:49:44;;;;;;;;;;;;;;;;;;4933108;29;19918;-90
2023/08/23 02:52:09;;;;;;;;;;;;;;;;;;4935782;28;19918;-92
2023/08/23 02:54:36;;;;;;;;;;;;;;;;;;4932375;28;19929;-87
2023/08/23 02:57:05;;;;;;;;;;;;;;;;;;4948354;28;19911;-89
2023/08/23 02:59:33;;;;;;;;;;;;;;;;;;4932385;29;19930;-89
2023/08/23 03:02:02;;;;;;;;;;;;;;;;;;4934644;28;19910;-88
2023/08/23 03:04:28;;;;;;;;;;;;;;;;;;4942445;28;19910;-89
2023/08/23 03:06:55;;;;;;;;;;;;;;;;;;4936973;29;20349;-89
2023/08/23 03:09:21;;;;;;;;;;;;;;;;;;4934077;28;19914;-90
2023/08/23 03:11:47;;;;;;;;;;;;;;;;;;4931994;29;19938;-90
2023/08/23 03:14:13;;;;;;;;;;;;;;;;;;4934860;28;19910;-89
2023/08/23 03:16:39;;;;;;;;;;;;;;;;;;4935653;28;19911;-89
2023/08/23 03:19:05;;;;;;;;;;;;;;;;;;4949019;28;20397;-89
2023/08/23 03:21:31;;;;;;;;;;;;;;;;;;4953600;28;19910;-89
2023/08/23 03:23:57;;;;;;;;;;;;;;;;;;4934927;28;19941;-89
2023/08/23 03:26:23;;;;;;;;;;;;;;;;;;4927887;28;19907;-90
2023/08/23 03:28:49;;;;;;;;;;;;;;;;;;4936100;28;20050;-88
2023/08/23 03:31:15;;;;;;;;;;;;;;;;;;4937706;29;19914;-90
2023/08/23 03:33:41;;;;;;;;;;;;;;;;;;4937283;28;19922;-90
2023/08/23 03:36:07;;;;;;;;;;;;;;;;;;4932340;28;20397;-89
2023/08/23 03:38:33;;;;;;;;;;;;;;;;;;4930074;28;19989;-89
2023/08/23 03:40:59;;;;;;;;;;;;;;;;;;4931368;29;19918;-89
2023/08/23 03:43:25;;;;;;;;;;;;;;;;;;4931394;28;19914;-89
2023/08/23 03:45:51;;;;;;;;;;;;;;;;;;4932671;28;19914;-88
2023/08/23 03:48:17;;;;;;;;;;;;;;;;;;4934477;28;19922;-89
2023/08/23 03:50:43;;;;;;;;;;;;;;;;;;4937020;29;19914;-89
2023/08/23 03:53:09;;;;;;;;;;;;;;;;;;4934924;28;19910;-89
2023/08/23 03:55:36;;;;;;;;;;;;;;;;;;4933243;29;19989;-89
2023/08/23 03:58:02;;;;;;;;;;;;;;;;;;4935353;28;20013;-90
2023/08/23 04:00:28;;;;;;;;;;;;;;;;;;4934027;29;19945;-89
2023/08/23 04:02:54;;;;;;;;;;;;;;;;;;4931302;28;19954;-89
2023/08/23 04:05:20;;;;;;;;;;;;;;;;;;4936803;28;19938;-90
2023/08/23 04:07:46;;;;;;;;;;;;;;;;;;4934092;28;19922;-92
2023/08/23 04:10:18;;;;;;;;;;;;;;;;;;4933934;29;19911;-91
2023/08/23 04:12:47;;;;;;;;;;;;;;;;;;4931199;28;19916;-92
2023/08/23 04:15:13;;;;;;;;;;;;;;;;;;4935248;28;19965;-91
2023/08/23 04:17:42;;;;;;;;;;;;;;;;;;4948662;28;19926;-91
2023/08/23 04:20:08;;;;;;;;;;;;;;;;;;4935176;28;19910;-90
2023/08/23 04:22:34;;;;;;;;;;;;;;;;;;4934682;28;19942;-91
2023/08/23 04:25:00;;;;;;;;;;;;;;;;;;4933345;28;19921;-91
2023/08/23 04:27:26;;;;;;;;;;;;;;;;;;4934826;28;19966;-91
2023/08/23 04:29:52;;;;;;;;;;;;;;;;;;4939026;28;20429;-90
2023/08/23 04:32:18;;;;;;;;;;;;;;;;;;4935806;28;19911;-91
2023/08/23 04:34:44;;;;;;;;;;;;;;;;;;4934293;28;19977;-90
2023/08/23 04:37:10;;;;;;;;;;;;;;;;;;4932401;28;19911;-91
2023/08/23 04:39:43;;;;;;;;;;;;;;;;;;4936857;29;19918;-91
2023/08/23 04:42:09;;;;;;;;;;;;;;;;;;4930517;28;19918;-90
2023/08/23 04:44:35;;;;;;;;;;;;;;;;;;4933959;28;20337;-90
2023/08/23 04:47:01;;;;;;;;;;;;;;;;;;4935221;28;19949;-91
2023/08/23 04:49:27;;;;;;;;;;;;;;;;;;4947871;28;19911;-90
2023/08/23 04:51:53;;;;;;;;;;;;;;;;;;4936621;28;19925;-91
2023/08/23 04:54:22;;;;;;;;;;;;;;;;;;4931627;28;19929;-91
2023/08/23 04:56:48;;;;;;;;;;;;;;;;;;4931365;29;19915;-90
2023/08/23 04:59:14;;;;;;;;;;;;;;;;;;4934427;28;19973;-90
2023/08/23 05:01:40;;;;;;;;;;;;;;;;;;4930024;28;20120;-90
2023/08/23 05:04:07;;;;;;;;;;;;;;;;;;4950576;28;19910;-90
2023/08/23 05:06:33;;;;;;;;;;;;;;;;;;4935220;28;19915;-90
2023/08/23 05:08:59;;;;;;;;;;;;;;;;;;4927474;29;19942;-90
2023/08/23 05:11:25;;;;;;;;;;;;;;;;;;4947912;28;20334;-90
2023/08/23 05:13:51;;;;;;;;;;;;;;;;;;4931868;28;19922;-91
2023/08/23 05:16:17;;;;;;;;;;;;;;;;;;4933726;28;20088;-90
2023/08/23 05:18:50;;;;;;;;;;;;;;;;;;4936021;28;20264;-92
2023/08/23 05:21:16;;;;;;;;;;;;;;;;;;4934107;28;20780;-90
2023/08/23 05:23:42;;;;;;;;;;;;;;;;;;4928495;28;19910;-91
2023/08/23 05:26:08;;;;;;;;;;;;;;;;;;4950736;28;20414;-92
2023/08/23 05:28:34;;;;;;;;;;;;;;;;;;4928809;28;19921;-92
2023/08/23 05:31:00;;;;;;;;;;;;;;;;;;4946740;28;19937;-90
2023/08/23 05:33:26;;;;;;;;;;;;;;;;;;4934131;28;19928;-90
2023/08/23 05:35:52;;;;;;;;;;;;;;;;;;4927154;28;21754;-91
2023/08/23 05:38:20;;;;;;;;;;;;;;;;;;4942666;28;19924;-91
2023/08/23 05:40:47;;;;;;;;;;;;;;;;;;4935757;29;19920;-90
2023/08/23 05:43:13;;;;;;;;;;;;;;;;;;4926968;29;19914;-91
2023/08/23 05:45:40;;;;;;;;;;;;;;;;;;4933176;28;19933;-90
2023/08/23 05:48:05;;;;;;;;;;;;;;;;;;4937368;28;19962;-90
2023/08/23 05:50:31;;;;;;;;;;;;;;;;;;4934042;28;19921;-91
2023/08/23 05:52:57;;;;;;;;;;;;;;;;;;4935886;29;19910;-91
2023/08/23 05:55:23;;;;;;;;;;;;;;;;;;4933322;29;19919;-90
2023/08/23 05:57:49;;;;;;;;;;;;;;;;;;4936944;29;19910;-92
2023/08/23 06:00:15;;;;;;;;;;;;;;;;;;4931102;28;19921;-88
2023/08/23 06:02:42;;;;;;;;;;;;;;;;;;4932086;28;19910;-88
2023/08/23 06:05:10;;;;;;;;;;;;;;;;;;4934975;28;20052;-88
2023/08/23 06:07:37;;;;;;;;;;;;;;;;;;4946739;28;20499;-88
2023/08/23 06:10:03;;;;;;;;;;;;;;;;;;4938317;28;19918;-89
2023/08/23 06:12:29;;;;;;;;;;;;;;;;;;4933029;28;20422;-88
2023/08/23 06:14:55;;;;;;;;;;;;;;;;;;4934730;28;19923;-88
2023/08/23 06:17:21;;;;;;;;;;;;;;;;;;4935670;28;19962;-89
2023/08/23 06:19:47;;;;;;;;;;;;;;;;;;4935615;28;19918;-89
2023/08/23 06:22:13;;;;;;;;;;;;;;;;;;4933027;28;19921;-89
2023/08/23 06:24:39;;;;;;;;;;;;;;;;;;4931318;29;19915;-89
2023/08/23 06:27:04;;;;;;;;;;;;;;;;;;4938396;28;19969;-88
2023/08/23 06:29:31;;;;;;;;;;;;;;;;;;4939195;29;19910;-89
2023/08/23 06:31:57;;;;;;;;;;;;;;;;;;4929249;28;20609;-88
2023/08/23 06:34:23;;;;;;;;;;;;;;;;;;4930020;28;20061;-87
2023/08/23 06:36:48;;;;;;;;;;;;;;;;;;4950155;28;19960;-88
2023/08/23 06:39:14;;;;;;;;;;;;;;;;;;4931358;29;20564;-89
2023/08/23 06:41:40;;;;;;;;;;;;;;;;;;4933402;28;19917;-89
2023/08/23 06:44:06;;;;;;;;;;;;;;;;;;4935904;28;19978;-87
2023/08/23 06:46:32;;;;;;;;;;;;;;;;;;4930650;28;19915;-88
2023/08/23 06:48:58;;;;;;;;;;;;;;;;;;4935953;28;19988;-89
2023/08/23 06:51:27;;;;;;;;;;;;;;;;;;4913224;29;20009;-89
2023/08/23 06:53:53;;;;;;;;;;;;;;;;;;4914864;29;20001;-88
2023/08/23 06:56:19;;;;;;;;;;;;;;;;;;4908570;29;20317;-88
2023/08/23 06:58:45;;;;;;;;;;;;;;;;;;4927042;29;19919;-88
2023/08/23 07:01:14;;;;;;;;;;;;;;;;;;4926578;29;19915;-89
2023/08/23 07:03:49;;;;;;;;;;;;;;;;;;4917050;29;19987;-88
2023/08/23 07:06:15;;;;;;;;;;;;;;;;;;4912587;29;19926;-87
2023/08/23 07:08:41;;;;;;;;;;;;;;;;;;4911582;29;19910;-89
2023/08/23 07:11:08;;;;;;;;;;;;;;;;;;4905715;29;20056;-89
2023/08/23 07:13:34;;;;;;;;;;;;;;;;;;4912097;29;19926;-89
2023/08/23 07:16:00;;;;;;;;;;;;;;;;;;4911069;29;19926;-89
2023/08/23 07:18:26;;;;;;;;;;;;;;;;;;4911955;29;20383;-88
2023/08/23 07:20:52;;;;;;;;;;;;;;;;;;4915177;29;19925;-88
2023/08/23 07:23:18;;;;;;;;;;;;;;;;;;4916221;29;20436;-89
2023/08/23 07:25:44;;;;;;;;;;;;;;;;;;4908019;29;19950;-89
2023/08/23 07:28:15;;;;;;;;;;;;;;;;;;4924527;29;19915;-88
2023/08/23 07:30:40;;;;;;;;;;;;;;;;;;4910560;29;19911;-88
2023/08/23 07:33:06;;;;;;;;;;;;;;;;;;4917511;29;19919;-89
2023/08/23 07:35:32;;;;;;;;;;;;;;;;;;4915710;29;19919;-89
2023/08/23 07:37:58;;;;;;;;;;;;;;;;;;4914406;29;20228;-90
2023/08/23 07:40:24;;;;;;;;;;;;;;;;;;4914604;29;19919;-91
2023/08/23 07:42:50;;;;;;;;;;;;;;;;;;4918953;29;19933;-90
2023/08/23 07:45:16;;;;;;;;;;;;;;;;;;4909742;29;19930;-89
2023/08/23 07:47:42;;;;;;;;;;;;;;;;;;4935185;28;19929;-90
2023/08/23 07:50:08;;;;;;;;;;;;;;;;;;4930945;28;20033;-90
2023/08/23 07:52:35;;;;;;;;;;;;;;;;;;4934759;28;19918;-91
2023/08/23 07:55:01;;;;;;;;;;;;;;;;;;4936859;28;19926;-90
2023/08/23 07:57:27;;;;;;;;;;;;;;;;;;4934607;28;20452;-90
2023/08/23 07:59:55;;;;;;;;;;;;;;;;;;4936001;28;19914;-90
2023/08/23 08:02:22;;;;;;;;;;;;;;;;;;4931926;28;19918;-90
2023/08/23 08:04:47;;;;;;;;;;;;;;;;;;4935013;28;19911;-90
2023/08/23 08:07:13;;;;;;;;;;;;;;;;;;4935320;29;19990;-90
2023/08/23 08:09:46;;;;;;;;;;;;;;;;;;4951203;28;20155;-90
2023/08/23 08:12:12;;;;;;;;;;;;;;;;;;4932529;28;19911;-91
2023/08/23 08:14:38;;;;;;;;;;;;;;;;;;4944642;28;20283;-91
2023/08/23 08:17:04;;;;;;;;;;;;;;;;;;4933944;28;20344;-90
2023/08/23 08:19:30;;;;;;;;;;;;;;;;;;4930912;28;19926;-89
2023/08/23 08:22:00;;;;;;;;;;;;;;;;;;4932399;28;19914;-90
2023/08/23 08:24:26;;;;;;;;;;;;;;;;;;4933225;29;19993;-90
2023/08/23 08:26:52;;;;;;;;;;;;;;;;;;4947923;28;20004;-90
2023/08/23 08:29:17;;;;;;;;;;;;;;;;;;4927274;28;19921;-91
2023/08/23 08:31:43;;;;;;;;;;;;;;;;;;4936414;29;20013;-90
2023/08/23 08:34:09;;;;;;;;;;;;;;;;;;4933445;28;19962;-92
2023/08/23 08:36:35;;;;;;;;;;;;;;;;;;4934575;28;19914;-91
2023/08/23 08:39:01;;;;;;;;;;;;;;;;;;4931178;28;20416;-91
2023/08/23 08:41:27;;;;;;;;;;;;;;;;;;4934521;28;19911;-90
2023/08/23 08:43:53;;;;;;;;;;;;;;;;;;4944941;28;19949;-90
2023/08/23 08:46:19;;;;;;;;;;;;;;;;;;4933871;29;19914;-91
2023/08/23 08:48:45;;;;;;;;;;;;;;;;;;4932372;28;19926;-91
2023/08/23 08:51:18;;;;;;;;;;;;;;;;;;4931315;28;19914;-90
2023/08/23 08:53:44;;;;;;;;;;;;;;;;;;4948360;28;19922;-90
2023/08/23 08:56:11;;;;;;;;;;;;;;;;;;4931988;29;19925;-90
2023/08/23 08:58:37;;;;;;;;;;;;;;;;;;4934226;28;20305;-90
2023/08/23 09:01:36;;;;;;;;;;;;;;;;;;4934885;28;19945;-90
2023/08/23 09:03:55;;;;;;;;;;;;;;;;;;4946170;28;20251;-90
2023/08/23 09:06:22;;;;;;;;;;;;;;;;;;4928939;28;19925;-90
2023/08/23 09:08:48;;;;;;;;;;;;;;;;;;4930204;29;19937;-91
2023/08/23 09:11:14;;;;;;;;;;;;;;;;;;4937276;28;19922;-90
2023/08/23 09:13:40;;;;;;;;;;;;;;;;;;4934293;28;20660;-90
2023/08/23 09:16:06;;;;;;;;;;;;;;;;;;4930057;28;19938;-91
2023/08/23 09:18:31;;;;;;;;;;;;;;;;;;4929778;28;19910;-91
2023/08/23 09:20:57;;;;;;;;;;;;;;;;;;4925864;28;19914;-90
2023/08/23 09:23:23;;;;;;;;;;;;;;;;;;4933193;28;20323;-90
2023/08/23 09:25:49;;;;;;;;;;;;;;;;;;4948529;28;19915;-90
2023/08/23 09:28:15;;;;;;;;;;;;;;;;;;4932742;28;19993;-91
2023/08/23 09:30:41;;;;;;;;;;;;;;;;;;4932340;28;19918;-90
2023/08/23 09:33:07;;;;;;;;;;;;;;;;;;4934566;28;19921;-88
2023/08/23 09:35:33;;;;;;;;;;;;;;;;;;4932497;28;21160;-89
2023/08/23 09:37:59;;;;;;;;;;;;;;;;;;4926102;28;19914;-91
2023/08/23 09:40:28;;;;;;;;;;;;;;;;;;4937275;28;19919;-89
2023/08/23 09:42:54;;;;;;;;;;;;;;;;;;4927962;29;19933;-89
2023/08/23 09:45:21;;;;;;;;;;;;;;;;;;4931345;28;20434;-89
2023/08/23 09:47:47;;;;;;;;;;;;;;;;;;4929898;28;19937;-89
2023/08/23 09:50:19;;;;;;;;;;;;;;;;;;4934769;29;19915;-90
2023/08/23 09:52:45;;;;;;;;;;;;;;;;;;4942869;28;20343;-89
2023/08/23 09:55:11;;;;;;;;;;;;;;;;;;4930969;28;20304;-89
2023/08/23 09:57:37;;;;;;;;;;;;;;;;;;4933949;28;19910;-89
2023/08/23 10:00:03;;;;;;;;;;;;;;;;;;4947250;28;19973;-91
2023/08/23 10:02:29;;;;;;;;;;;;;;;;;;4930022;29;20366;-90
2023/08/23 10:04:56;;;;;;;;;;;;;;;;;;4923418;29;19945;-92
2023/08/23 10:07:22;;;;;;;;;;;;;;;;;;4928658;28;19914;-89
2023/08/23 10:09:47;;;;;;;;;;;;;;;;;;4931211;28;19982;-90
2023/08/23 10:12:14;;;;;;;;;;;;;;;;;;4928177;28;20315;-90
2023/08/23 10:14:39;;;;;;;;;;;;;;;;;;4945691;28;19914;-89
2023/08/23 10:17:12;;;;;;;;;;;;;;;;;;4929506;28;19914;-90
2023/08/23 10:19:38;;;;;;;;;;;;;;;;;;4933635;28;19934;-90
2023/08/23 10:22:04;;;;;;;;;;;;;;;;;;4934029;29;19915;-90
2023/08/23 10:24:29;;;;;;;;;;;;;;;;;;4936694;29;19962;-89
2023/08/23 10:27:08;;;;;;;;;;;;;;;;;;4933157;29;19914;-89
2023/08/23 10:29:36;;;;;;;;;;;;;;;;;;4938964;29;19974;-89
2023/08/23 10:32:02;;;;;;;;;;;;;;;;;;4934917;29;19914;-91
2023/08/23 10:34:42;;;;;;;;;;;;;;;;;;4939559;29;20202;-90
2023/08/23 10:37:08;;;;;;;;;;;;;;;;;;4957369;28;19911;-91
2023/08/23 10:39:34;;;;;;;;;;;;;;;;;;4939229;28;20686;-90
2023/08/23 10:42:02;;;;;;;;;;;;;;;;;;4933864;29;19914;-90
2023/08/23 10:44:28;;;;;;;;;;;;;;;;;;4935127;28;19925;-90
2023/08/23 10:46:54;;;;;;;;;;;;;;;;;;4930667;29;20337;-89
2023/08/23 10:49:20;;;;;;;;;;;;;;;;;;4925585;28;19929;-88
2023/08/23 10:51:46;;;;;;;;;;;;;;;;;;4914832;29;19914;-90
2023/08/23 10:54:13;;;;;;;;;;;;;;;;;;4923868;29;20315;-90
2023/08/23 10:56:39;;;;;;;;;;;;;;;;;;4918780;29;19910;-90
2023/08/23 10:59:15;;;;;;;;;;;;;;;;;;4922374;29;19922;-90
2023/08/23 11:01:41;;;;;;;;;;;;;;;;;;4915935;29;20411;-90
2023/08/23 11:04:10;;;;;;;;;;;;;;;;;;4919967;29;19939;-90
2023/08/23 11:06:36;;;;;;;;;;;;;;;;;;4931395;29;19918;-90
2023/08/23 11:09:02;;;;;;;;;;;;;;;;;;4923433;29;19910;-90
2023/08/23 11:11:28;;;;;;;;;;;;;;;;;;4923648;29;19946;-89
2023/08/23 11:13:57;;;;;;;;;;;;;;;;;;4926643;29;19942;-89
2023/08/23 11:16:23;;;;;;;;;;;;;;;;;;4921648;29;20005;-90
2023/08/23 11:19:07;;;;;;;;;;;;;;;;;;4927261;29;19915;-90
2023/08/23 11:21:40;;;;;;;;;;;;;;;;;;4923366;29;20316;-91
2023/08/23 11:24:09;;;;;;;;;;;;;;;;;;4925862;29;19914;-90
2023/08/23 11:26:36;;;;;;;;;;;;;;;;;;4921329;29;20392;-90
2023/08/23 11:29:02;;;;;;;;;;;;;;;;;;4926508;29;19925;-89
2023/08/23 11:31:29;;;;;;;;;;;;;;;;;;4922951;29;19911;-89
2023/08/23 11:33:55;;;;;;;;;;;;;;;;;;4918049;29;19936;-89
2023/08/23 11:36:21;;;;;;;;;;;;;;;;;;4919046;29;19915;-90
2023/08/23 11:38:47;;;;;;;;;;;;;;;;;;4920302;29;19925;-89
2023/08/23 11:41:13;;;;;;;;;;;;;;;;;;4919152;29;19911;-90
2023/08/23 11:43:39;;;;;;;;;;;;;;;;;;4922347;29;19915;-90
2023/08/23 11:46:05;;;;;;;;;;;;;;;;;;4913611;29;20462;-89
2023/08/23 11:48:31;;;;;;;;;;;;;;;;;;4928331;28;19919;-89
2023/08/23 11:50:58;;;;;;;;;;;;;;;;;;4941970;28;20261;-88
2023/08/23 11:53:23;;;;;;;;;;;;;;;;;;4946003;29;19917;-89
2023/08/23 11:55:50;;;;;;;;;;;;;;;;;;4938107;28;19914;-89
2023/08/23 11:58:16;;;;;;;;;;;;;;;;;;4934771;29;19914;-89
2023/08/23 12:00:42;;;;;;;;;;;;;;;;;;4937169;28;19917;-89
2023/08/23 12:03:08;;;;;;;;;;;;;;;;;;4936923;28;19921;-89
2023/08/23 12:05:37;;;;;;;;;;;;;;;;;;4930806;29;19910;-89
2023/08/23 12:08:04;;;;;;;;;;;;;;;;;;4934317;28;19914;-89
2023/08/23 12:10:30;;;;;;;;;;;;;;;;;;4930293;29;20315;-89
2023/08/23 12:12:56;;;;;;;;;;;;;;;;;;4936511;28;19915;-89
2023/08/23 12:15:22;;;;;;;;;;;;;;;;;;4933703;29;20398;-89
2023/08/23 12:17:48;;;;;;;;;;;;;;;;;;4939145;28;19998;-89
2023/08/23 12:20:14;;;;;;;;;;;;;;;;;;4942344;28;20475;-88
2023/08/23 12:22:40;;;;;;;;;;;;;;;;;;4939542;28;19918;-89
2023/08/23 12:25:06;;;;;;;;;;;;;;;;;;4932519;29;19933;-90
2023/08/23 12:27:32;;;;;;;;;;;;;;;;;;4944236;28;20007;-89
2023/08/23 12:29:58;;;;;;;;;;;;;;;;;;4934149;28;19911;-89
2023/08/23 12:32:24;;;;;;;;;;;;;;;;;;4948989;28;19914;-89
2023/08/23 12:34:56;;;;;;;;;;;;;;;;;;4940072;29;22577;-89
2023/08/23 12:37:22;;;;;;;;;;;;;;;;;;4939760;29;19926;-90
2023/08/23 12:39:49;;;;;;;;;;;;;;;;;;4952160;28;19910;-88
2023/08/23 12:42:15;;;;;;;;;;;;;;;;;;4942199;29;19932;-89
2023/08/23 12:44:41;;;;;;;;;;;;;;;;;;4939114;29;19965;-89
2023/08/23 12:47:06;;;;;;;;;;;;;;;;;;4937151;29;19922;-89
2023/08/23 12:49:34;;;;;;;;;;;;;;;;;;4937709;28;19925;-90
2023/08/23 12:52:00;;;;;;;;;;;;;;;;;;4937117;29;20279;-89
2023/08/23 12:54:26;;;;;;;;;;;;;;;;;;4934251;29;19922;-88
2023/08/23 12:56:54;;;;;;;;;;;;;;;;;;4931988;29;20278;-89
2023/08/23 12:59:20;;;;;;;;;;;;;;;;;;4935534;29;19914;-89
2023/08/23 13:01:46;;;;;;;;;;;;;;;;;;4946813;28;20374;-89
2023/08/23 13:04:12;;;;;;;;;;;;;;;;;;4934343;29;20013;-89
2023/08/23 13:06:38;;;;;;;;;;;;;;;;;;4932489;29;20378;-90
2023/08/23 13:09:05;;;;;;;;;;;;;;;;;;4929108;29;20001;-89
2023/08/23 13:11:31;;;;;;;;;;;;;;;;;;4926065;29;19923;-89
2023/08/23 13:14:00;;;;;;;;;;;;;;;;;;4933762;29;20406;-89
2023/08/23 13:16:26;;;;;;;;;;;;;;;;;;4934719;29;20772;-89
2023/08/23 13:18:51;;;;;;;;;;;;;;;;;;4931883;28;20013;-89
2023/08/23 13:21:17;;;;;;;;;;;;;;;;;;4932921;29;19918;-90
2023/08/23 13:23:43;;;;;;;;;;;;;;;;;;4925561;28;19910;-89
2023/08/23 13:26:09;;;;;;;;;;;;;;;;;;4935256;29;19925;-88
2023/08/23 13:28:35;;;;;;;;;;;;;;;;;;4931391;29;20363;-89
2023/08/23 13:31:04;;;;;;;;;;;;;;;;;;4929611;29;21223;-89
2023/08/23 13:33:30;;;;;;;;;;;;;;;;;;4946866;28;20227;-89
2023/08/23 13:35:56;;;;;;;;;;;;;;;;;;4949055;28;20287;-89
2023/08/23 13:38:22;;;;;;;;;;;;;;;;;;4932229;28;20384;-89
2023/08/23 13:40:48;;;;;;;;;;;;;;;;;;4933952;29;19921;-90
2023/08/23 13:43:14;;;;;;;;;;;;;;;;;;4934429;29;19907;-90
2023/08/23 13:45:43;;;;;;;;;;;;;;;;;;4930093;28;20528;-88
2023/08/23 13:48:08;;;;;;;;;;;;;;;;;;4931203;29;20502;-88
2023/08/23 13:50:38;;;;;;;;;;;;;;;;;;4952985;28;20422;-90
2023/08/23 13:53:03;;;;;;;;;;;;;;;;;;4929567;28;19918;-90
2023/08/23 13:55:29;;;;;;;;;;;;;;;;;;4933462;28;20285;-90
2023/08/23 13:57:55;;;;;;;;;;;;;;;;;;4936452;29;19918;-90
2023/08/23 14:00:21;;;;;;;;;;;;;;;;;;4933958;28;19910;-90
2023/08/23 14:02:47;;;;;;;;;;;;;;;;;;4931272;28;20383;-89
2023/08/23 14:05:13;;;;;;;;;;;;;;;;;;4939606;28;19961;-90
2023/08/23 14:07:43;;;;;;;;;;;;;;;;;;4934831;29;20310;-90
2023/08/23 14:10:09;;;;;;;;;;;;;;;;;;4936645;29;20001;-90
2023/08/23 14:12:35;;;;;;;;;;;;;;;;;;4935850;28;19964;-91
2023/08/23 14:15:01;;;;;;;;;;;;;;;;;;4935696;29;19914;-91
2023/08/23 14:17:27;;;;;;;;;;;;;;;;;;4928187;28;20027;-89
2023/08/23 14:19:53;;;;;;;;;;;;;;;;;;4933697;29;19941;-90
2023/08/23 14:22:19;;;;;;;;;;;;;;;;;;4945881;28;20029;-90
2023/08/23 14:24:45;;;;;;;;;;;;;;;;;;4942693;29;20228;-90
2023/08/23 14:27:14;;;;;;;;;;;;;;;;;;4934191;28;19918;-89
2023/08/23 14:29:41;;;;;;;;;;;;;;;;;;4940536;29;19911;-90
2023/08/23 14:32:07;;;;;;;;;;;;;;;;;;4934778;28;19911;-90
2023/08/23 14:34:34;;;;;;;;;;;;;;;;;;4936837;28;20001;-89
2023/08/23 14:37:00;;;;;;;;;;;;;;;;;;4940901;29;19913;-87
2023/08/23 14:39:26;;;;;;;;;;;;;;;;;;4938193;28;19918;-89
2023/08/23 14:41:52;;;;;;;;;;;;;;;;;;4951172;28;19968;-89
2023/08/23 14:44:18;;;;;;;;;;;;;;;;;;4938483;29;19914;-89
2023/08/23 14:46:44;;;;;;;;;;;;;;;;;;4936259;29;20293;-88
2023/08/23 14:49:16;;;;;;;;;;;;;;;;;;4949601;28;19915;-89
2023/08/23 14:51:42;;;;;;;;;;;;;;;;;;4919607;29;20078;-88
2023/08/23 14:54:08;;;;;;;;;;;;;;;;;;4915491;29;19918;-87
2023/08/23 14:56:34;;;;;;;;;;;;;;;;;;4932068;29;19926;-88
2023/08/23 14:59:00;;;;;;;;;;;;;;;;;;4919232;29;20012;-89
2023/08/23 15:01:25;;;;;;;;;;;;;;;;;;4920017;29;19923;-88
2023/08/23 15:03:51;;;;;;;;;;;;;;;;;;4918713;29;19917;-89
2023/08/23 15:06:18;;;;;;;;;;;;;;;;;;4933152;29;20435;-87
2023/08/23 15:08:44;;;;;;;;;;;;;;;;;;4935400;29;19930;-87
2023/08/23 15:11:10;;;;;;;;;;;;;;;;;;4921521;29;20033;-88
2023/08/23 15:13:36;;;;;;;;;;;;;;;;;;4916918;29;19910;-89
2023/08/23 15:16:02;;;;;;;;;;;;;;;;;;4914430;29;19915;-88
2023/08/23 15:18:28;;;;;;;;;;;;;;;;;;4923875;29;19966;-88
2023/08/23 15:20:54;;;;;;;;;;;;;;;;;;4913677;29;19923;-88
2023/08/23 15:23:20;;;;;;;;;;;;;;;;;;4909873;29;19915;-88
2023/08/23 15:25:46;;;;;;;;;;;;;;;;;;4914700;29;19922;-90
2023/08/23 15:28:21;;;;;;;;;;;;;;;;;;4917191;29;20295;-89
2023/08/23 15:30:47;;;;;;;;;;;;;;;;;;4934388;29;19954;-88
2023/08/23 15:33:13;;;;;;;;;;;;;;;;;;4914630;29;19942;-87
2023/08/23 15:35:39;;;;;;;;;;;;;;;;;;4916165;29;19914;-88
2023/08/23 15:38:05;;;;;;;;;;;;;;;;;;4923983;29;19914;-87
2023/08/23 15:40:31;;;;;;;;;;;;;;;;;;4933277;29;19915;-87
2023/08/23 15:42:57;;;;;;;;;;;;;;;;;;4917144;29;19914;-88
2023/08/23 15:45:23;;;;;;;;;;;;;;;;;;4918736;29;20001;-88
2023/08/23 15:47:49;;;;;;;;;;;;;;;;;;4913867;29;19915;-93
2023/08/23 15:50:16;;;;;;;;;;;;;;;;;;4945365;28;19977;-93
2023/08/23 15:52:42;;;;;;;;;;;;;;;;;;4952456;28;20439;-94
2023/08/23 15:55:09;;;;;;;;;;;;;;;;;;4936389;29;19972;-92
2023/08/23 15:57:35;;;;;;;;;;;;;;;;;;4932012;29;19938;-94
2023/08/23 16:00:03;;;;;;;;;;;;;;;;;;4928039;28;19958;-94
2023/08/23 16:02:29;;;;;;;;;;;;;;;;;;4935757;29;19966;-93
2023/08/23 16:04:55;;;;;;;;;;;;;;;;;;4936570;28;19918;-93
2023/08/23 16:07:27;;;;;;;;;;;;;;;;;;4934839;29;19924;-94
2023/08/23 16:09:53;;;;;;;;;;;;;;;;;;4931641;29;19914;-94
2023/08/23 16:12:19;;;;;;;;;;;;;;;;;;4932287;28;20405;-95
2023/08/23 16:14:45;;;;;;;;;;;;;;;;;;4928109;29;19914;-93
2023/08/23 16:17:11;;;;;;;;;;;;;;;;;;4933116;28;19910;-94
2023/08/23 16:19:37;;;;;;;;;;;;;;;;;;4946810;28;19915;-95
2023/08/23 16:22:03;;;;;;;;;;;;;;;;;;4933999;28;20354;-93
2023/08/23 16:24:31;;;;;;;;;;;;;;;;;;4944361;28;20046;-92
2023/08/23 16:26:57;;;;;;;;;;;;;;;;;;4927384;28;20567;-93
2023/08/23 16:29:23;;;;;;;;;;;;;;;;;;4943561;28;19977;-94
2023/08/23 16:31:49;;;;;;;;;;;;;;;;;;4930704;28;19914;-92
2023/08/23 16:34:15;;;;;;;;;;;;;;;;;;4930765;29;19921;-92
2023/08/23 16:36:41;;;;;;;;;;;;;;;;;;4927693;29;19911;-93
2023/08/23 16:39:07;;;;;;;;;;;;;;;;;;4932625;28;20188;-95
2023/08/23 16:41:33;;;;;;;;;;;;;;;;;;4949705;28;19921;-94